sensor_id;sensor_type;location;lat;lon;timestamp;pressure;altitude;pressure_sealevel;temperature;humidity
75543;BME280;64129;53.508;10.476;2022-10-31T00:00:28;101375.28;;;10.90;83.65
75543;BME280;64129;53.508;10.476;2022-10-31T00:02:53;101369.16;;;10.84;82.44
75543;BME280;64129;53.508;10.476;2022-10-31T00:05:18;101374.50;;;10.82;82.59
75543;BME280;64129;53.508;10.476;2022-10-31T00:07:44;101379.91;;;10.76;82.26
75543;BME280;64129;53.508;10.476;2022-10-31T00:10:09;101377.97;;;10.87;82.08
75543;BME280;64129;53.508;10.476;2022-10-31T00:12:34;101378.78;;;10.92;81.81
75543;BME280;64129;53.508;10.476;2022-10-31T00:15:00;101377.94;;;10.90;80.95
75543;BME280;64129;53.508;10.476;2022-10-31T00:17:25;101386.81;;;10.89;81.12
75543;BME280;64129;53.508;10.476;2022-10-31T00:19:51;101379.72;;;10.88;81.33
75543;BME280;64129;53.508;10.476;2022-10-31T00:22:16;101388.75;;;10.75;81.88
75543;BME280;64129;53.508;10.476;2022-10-31T00:24:42;101392.31;;;10.77;82.10
75543;BME280;64129;53.508;10.476;2022-10-31T00:27:07;101386.91;;;10.83;81.92
75543;BME280;64129;53.508;10.476;2022-10-31T00:29:32;101384.91;;;10.98;81.32
75543;BME280;64129;53.508;10.476;2022-10-31T00:31:58;101386.81;;;10.89;81.85
75543;BME280;64129;53.508;10.476;2022-10-31T00:34:23;101395.69;;;10.88;84.15
75543;BME280;64129;53.508;10.476;2022-10-31T00:36:48;101400.75;;;11.04;83.42
75543;BME280;64129;53.508;10.476;2022-10-31T00:39:14;101399.00;;;11.03;82.10
75543;BME280;64129;53.508;10.476;2022-10-31T00:41:39;101406.13;;;11.01;82.23
75543;BME280;64129;53.508;10.476;2022-10-31T00:44:11;101395.41;;;11.05;82.05
75543;BME280;64129;53.508;10.476;2022-10-31T00:46:36;101397.28;;;10.99;82.24
75543;BME280;64129;53.508;10.476;2022-10-31T00:49:01;101398.13;;;11.02;82.02
75543;BME280;64129;53.508;10.476;2022-10-31T00:51:27;101394.59;;;11.00;81.92
75543;BME280;64129;53.508;10.476;2022-10-31T00:53:52;101393.84;;;10.92;81.61
75543;BME280;64129;53.508;10.476;2022-10-31T00:56:17;101392.88;;;10.98;81.55
75543;BME280;64129;53.508;10.476;2022-10-31T00:58:43;101392.81;;;11.02;81.36
75543;BME280;64129;53.508;10.476;2022-10-31T01:01:08;101389.22;;;11.05;81.68
75543;BME280;64129;53.508;10.476;2022-10-31T01:03:34;101400.75;;;11.04;81.39
75543;BME280;64129;53.508;10.476;2022-10-31T01:06:08;101397.25;;;11.02;81.60
75543;BME280;64129;53.508;10.476;2022-10-31T01:08:35;101396.53;;;10.90;81.89
75543;BME280;64129;53.508;10.476;2022-10-31T01:11:05;101394.78;;;10.89;81.39
75543;BME280;64129;53.508;10.476;2022-10-31T01:13:32;101400.94;;;10.91;81.75
75543;BME280;64129;53.508;10.476;2022-10-31T01:15:59;101402.69;;;10.92;81.60
75543;BME280;64129;53.508;10.476;2022-10-31T01:18:25;101396.53;;;10.90;82.60
75543;BME280;64129;53.508;10.476;2022-10-31T01:21:01;101401.97;;;10.83;83.10
75543;BME280;64129;53.508;10.476;2022-10-31T01:23:27;101395.69;;;10.88;82.39
75543;BME280;64129;53.508;10.476;2022-10-31T01:26:14;101395.69;;;10.88;82.22
75543;BME280;64129;53.508;10.476;2022-10-31T01:28:49;101395.69;;;10.88;82.34
75543;BME280;64129;53.508;10.476;2022-10-31T01:31:17;101393.03;;;10.88;81.84
75543;BME280;64129;53.508;10.476;2022-10-31T01:33:42;101391.19;;;10.92;81.02
75543;BME280;64129;53.508;10.476;2022-10-31T01:36:29;101401.00;;;10.87;81.97
75543;BME280;64129;53.508;10.476;2022-10-31T01:38:58;101401.84;;;10.90;81.88
75543;BME280;64129;53.508;10.476;2022-10-31T01:41:29;101410.84;;;10.82;83.17
75543;BME280;64129;53.508;10.476;2022-10-31T01:44:00;101415.19;;;10.87;82.80
75543;BME280;64129;53.508;10.476;2022-10-31T01:48:55;101424.88;;;10.90;82.87
75543;BME280;64129;53.508;10.476;2022-10-31T01:51:23;101422.28;;;10.85;82.70
75543;BME280;64129;53.508;10.476;2022-10-31T01:53:51;101423.13;;;10.89;82.46
75543;BME280;64129;53.508;10.476;2022-10-31T01:56:20;101437.38;;;10.83;83.51
75543;BME280;64129;53.508;10.476;2022-10-31T01:58:46;101433.75;;;10.89;82.52
75543;BME280;64129;53.508;10.476;2022-10-31T02:01:16;101440.94;;;10.82;83.16
75543;BME280;64129;53.508;10.476;2022-10-31T02:03:42;101429.38;;;10.86;82.53
75543;BME280;64129;53.508;10.476;2022-10-31T02:06:18;101442.66;;;10.86;82.69
75543;BME280;64129;53.508;10.476;2022-10-31T02:08:46;101432.84;;;10.90;82.50
75543;BME280;64129;53.508;10.476;2022-10-31T02:11:12;101446.19;;;10.87;82.49
75543;BME280;64129;53.508;10.476;2022-10-31T02:13:38;101456.88;;;10.82;83.33
75543;BME280;64129;53.508;10.476;2022-10-31T02:16:06;101455.84;;;10.92;84.03
75543;BME280;64129;53.508;10.476;2022-10-31T02:18:32;101454.88;;;10.98;84.25
75543;BME280;64129;53.508;10.476;2022-10-31T02:21:05;101452.16;;;11.03;85.36
75543;BME280;64129;53.508;10.476;2022-10-31T02:26:44;101455.63;;;11.08;85.30
75543;BME280;64129;53.508;10.476;2022-10-31T02:34:21;101456.59;;;11.02;84.60
75543;BME280;64129;53.508;10.476;2022-10-31T02:39:25;101459.31;;;10.98;84.26
75543;BME280;64129;53.508;10.476;2022-10-31T02:42:16;101457.22;;;11.21;87.20
75543;BME280;64129;53.508;10.476;2022-10-31T02:44:45;101462.63;;;11.15;85.50
75543;BME280;64129;53.508;10.476;2022-10-31T02:47:16;101461.78;;;11.10;83.95
75543;BME280;64129;53.508;10.476;2022-10-31T02:49:50;101466.22;;;11.12;84.63
75543;BME280;64129;53.508;10.476;2022-10-31T02:52:27;101463.53;;;11.14;84.76
75543;BME280;64129;53.508;10.476;2022-10-31T02:55:12;101467.13;;;11.11;83.23
75543;BME280;64129;53.508;10.476;2022-10-31T02:58:08;101474.03;;;11.23;83.73
75543;BME280;64129;53.508;10.476;2022-10-31T03:09:41;101478.34;;;11.30;84.40
75543;BME280;64129;53.508;10.476;2022-10-31T03:15:04;101487.25;;;11.29;85.92
75543;BME280;64129;53.508;10.476;2022-10-31T03:17:37;101488.13;;;11.28;85.66
75543;BME280;64129;53.508;10.476;2022-10-31T03:20:07;101490.81;;;11.27;85.30
75543;BME280;64129;53.508;10.476;2022-10-31T03:22:35;101489.94;;;11.26;85.22
75543;BME280;64129;53.508;10.476;2022-10-31T03:25:04;101494.44;;;11.21;86.16
75543;BME280;64129;53.508;10.476;2022-10-31T03:27:33;101496.03;;;11.34;85.53
75543;BME280;64129;53.508;10.476;2022-10-31T03:30:02;101499.53;;;11.36;84.40
75543;BME280;64129;53.508;10.476;2022-10-31T03:32:44;101497.81;;;11.32;85.05
75543;BME280;64129;53.508;10.476;2022-10-31T03:35:13;101505.69;;;11.40;84.52
75543;BME280;64129;53.508;10.476;2022-10-31T03:37:41;101510.19;;;11.36;84.54
75543;BME280;64129;53.508;10.476;2022-10-31T03:40:14;101511.16;;;11.31;85.09
75543;BME280;64129;53.508;10.476;2022-10-31T03:42:44;101512.78;;;11.39;84.33
75543;BME280;64129;53.508;10.476;2022-10-31T03:45:18;101512.06;;;11.28;84.75
75543;BME280;64129;53.508;10.476;2022-10-31T03:47:47;101517.28;;;11.36;87.24
75543;BME280;64129;53.508;10.476;2022-10-31T03:50:15;101525.22;;;11.39;85.73
75543;BME280;64129;53.508;10.476;2022-10-31T03:58:00;101535.91;;;11.34;84.56
75543;BME280;64129;53.508;10.476;2022-10-31T04:00:27;101534.03;;;11.41;83.96
75543;BME280;64129;53.508;10.476;2022-10-31T04:03:00;101540.34;;;11.35;83.95
75543;BME280;64129;53.508;10.476;2022-10-31T04:05:31;101542.28;;;11.24;84.27
75543;BME280;64129;53.508;10.476;2022-10-31T04:08:00;101545.69;;;11.32;83.74
75543;BME280;64129;53.508;10.476;2022-10-31T04:10:31;101551.00;;;11.32;83.60
75543;BME280;64129;53.508;10.476;2022-10-31T04:13:01;101550.97;;;11.35;83.16
75543;BME280;64129;53.508;10.476;2022-10-31T04:15:34;101559.91;;;11.31;82.86
75543;BME280;64129;53.508;10.476;2022-10-31T04:18:02;101551.06;;;11.29;83.50
75543;BME280;64129;53.508;10.476;2022-10-31T04:20:47;101555.53;;;11.25;83.72
75543;BME280;64129;53.508;10.476;2022-10-31T04:23:20;101562.59;;;11.28;83.08
75543;BME280;64129;53.508;10.476;2022-10-31T04:25:48;101559.16;;;11.21;83.08
75543;BME280;64129;53.508;10.476;2022-10-31T04:28:13;101565.31;;;11.23;83.76
75543;BME280;64129;53.508;10.476;2022-10-31T04:30:39;101569.75;;;11.24;83.41
75543;BME280;64129;53.508;10.476;2022-10-31T04:33:04;101559.97;;;11.25;82.95
75543;BME280;64129;53.508;10.476;2022-10-31T04:35:30;101560.16;;;11.13;83.52
75543;BME280;64129;53.508;10.476;2022-10-31T04:37:55;101567.13;;;11.21;84.06
75543;BME280;64129;53.508;10.476;2022-10-31T04:40:20;101561.81;;;11.20;83.36
75543;BME280;64129;53.508;10.476;2022-10-31T04:43:04;101559.16;;;11.21;84.75
75543;BME280;64129;53.508;10.476;2022-10-31T04:45:29;101563.50;;;11.27;84.44
75543;BME280;64129;53.508;10.476;2022-10-31T04:47:55;101559.84;;;11.34;86.58
75543;BME280;64129;53.508;10.476;2022-10-31T04:50:21;101561.63;;;11.34;86.81
75543;BME280;64129;53.508;10.476;2022-10-31T04:52:46;101565.97;;;11.41;85.50
75543;BME280;64129;53.508;10.476;2022-10-31T04:55:15;101565.03;;;11.46;85.39
75543;BME280;64129;53.508;10.476;2022-10-31T04:58:11;101570.34;;;11.46;84.82
75543;BME280;64129;53.508;10.476;2022-10-31T05:00:36;101574.72;;;11.50;83.93
75543;BME280;64129;53.508;10.476;2022-10-31T05:03:03;101573.78;;;11.54;85.94
75543;BME280;64129;53.508;10.476;2022-10-31T05:05:30;101579.13;;;11.51;85.89
75543;BME280;64129;53.508;10.476;2022-10-31T05:07:58;101575.56;;;11.52;86.60
75543;BME280;64129;53.508;10.476;2022-10-31T05:10:27;101575.53;;;11.55;86.64
75543;BME280;64129;53.508;10.476;2022-10-31T05:12:58;101578.16;;;11.57;87.66
75543;BME280;64129;53.508;10.476;2022-10-31T05:15:32;101573.66;;;11.62;87.64
75543;BME280;64129;53.508;10.476;2022-10-31T05:18:16;101568.44;;;11.54;88.67
75543;BME280;64129;53.508;10.476;2022-10-31T05:21:08;101570.91;;;11.67;87.76
75543;BME280;64129;53.508;10.476;2022-10-31T05:23:34;101566.34;;;11.78;86.42
75543;BME280;64129;53.508;10.476;2022-10-31T05:26:00;101569.88;;;11.77;84.15
75543;BME280;64129;53.508;10.476;2022-10-31T05:28:25;101577.88;;;11.80;84.22
75543;BME280;64129;53.508;10.476;2022-10-31T05:30:51;101575.13;;;11.86;85.74
75543;BME280;64129;53.508;10.476;2022-10-31T05:33:16;101572.44;;;11.88;85.81
75543;BME280;64129;53.508;10.476;2022-10-31T05:36:00;101585.75;;;11.86;87.58
75543;BME280;64129;53.508;10.476;2022-10-31T05:38:28;101581.19;;;11.94;87.03
75543;BME280;64129;53.508;10.476;2022-10-31T05:40:57;101590.16;;;11.89;88.41
75543;BME280;64129;53.508;10.476;2022-10-31T05:43:25;101593.53;;;12.00;87.17
75543;BME280;64129;53.508;10.476;2022-10-31T05:45:55;101591.78;;;11.97;87.28
75543;BME280;64129;53.508;10.476;2022-10-31T05:48:50;101587.25;;;12.02;87.68
75543;BME280;64129;53.508;10.476;2022-10-31T05:51:41;101591.66;;;12.05;87.25
75543;BME280;64129;53.508;10.476;2022-10-31T05:54:07;101580.88;;;12.12;87.12
75543;BME280;64129;53.508;10.476;2022-10-31T05:56:33;101585.22;;;12.20;86.60
75543;BME280;64129;53.508;10.476;2022-10-31T05:58:59;101587.84;;;12.21;86.38
75543;BME280;64129;53.508;10.476;2022-10-31T06:01:25;101586.09;;;12.20;87.09
75543;BME280;64129;53.508;10.476;2022-10-31T06:03:51;101576.34;;;12.19;87.20
75543;BME280;64129;53.508;10.476;2022-10-31T06:06:18;101593.16;;;12.23;87.18
75543;BME280;64129;53.508;10.476;2022-10-31T06:08:44;101579.72;;;12.29;86.57
75543;BME280;64129;53.508;10.476;2022-10-31T06:11:13;101583.34;;;12.25;86.91
75543;BME280;64129;53.508;10.476;2022-10-31T06:13:57;101581.53;;;12.27;87.05
75543;BME280;64129;53.508;10.476;2022-10-31T06:16:28;101591.31;;;12.26;86.56
75543;BME280;64129;53.508;10.476;2022-10-31T06:18:56;101582.28;;;12.35;86.75
75543;BME280;64129;53.508;10.476;2022-10-31T06:21:21;101583.28;;;12.29;86.75
75543;BME280;64129;53.508;10.476;2022-10-31T06:23:49;101583.19;;;12.34;87.16
75543;BME280;64129;53.508;10.476;2022-10-31T06:26:31;101580.50;;;12.35;86.17
75543;BME280;64129;53.508;10.476;2022-10-31T06:28:56;101586.75;;;12.33;86.93
75543;BME280;64129;53.508;10.476;2022-10-31T06:31:34;101585.69;;;12.43;85.45
75543;BME280;64129;53.508;10.476;2022-10-31T06:33:59;101596.28;;;12.46;87.61
75543;BME280;64129;53.508;10.476;2022-10-31T06:36:25;101591.81;;;12.48;87.74
75543;BME280;64129;53.508;10.476;2022-10-31T06:38:52;101593.69;;;12.43;88.61
75543;BME280;64129;53.508;10.476;2022-10-31T06:41:21;101596.38;;;12.41;88.77
75543;BME280;64129;53.508;10.476;2022-10-31T06:43:47;101608.63;;;12.53;87.73
75543;BME280;64129;53.508;10.476;2022-10-31T06:46:33;101614.91;;;12.49;88.47
75543;BME280;64129;53.508;10.476;2022-10-31T06:49:17;101625.41;;;12.58;86.31
75543;BME280;64129;53.508;10.476;2022-10-31T06:51:52;101628.88;;;12.63;88.00
75543;BME280;64129;53.508;10.476;2022-10-31T06:54:17;101628.75;;;12.69;86.40
75543;BME280;64129;53.508;10.476;2022-10-31T06:56:46;101636.06;;;12.58;88.01
75543;BME280;64129;53.508;10.476;2022-10-31T06:59:12;101633.19;;;12.69;88.33
75543;BME280;64129;53.508;10.476;2022-10-31T07:02:00;101639.41;;;12.69;89.06
75543;BME280;64129;53.508;10.476;2022-10-31T07:04:26;101639.34;;;12.72;87.83
75543;BME280;64129;53.508;10.476;2022-10-31T07:06:51;101646.38;;;12.76;88.71
75543;BME280;64129;53.508;10.476;2022-10-31T07:09:18;101646.31;;;12.79;87.73
75543;BME280;64129;53.508;10.476;2022-10-31T07:11:45;101645.50;;;12.76;88.42
75543;BME280;64129;53.508;10.476;2022-10-31T07:14:11;101646.25;;;12.86;88.48
75543;BME280;64129;53.508;10.476;2022-10-31T07:16:36;101642.88;;;12.74;87.98
75543;BME280;64129;53.508;10.476;2022-10-31T07:19:03;101646.16;;;12.90;87.21
75543;BME280;64129;53.508;10.476;2022-10-31T07:21:28;101656.97;;;12.79;86.66
75543;BME280;64129;53.508;10.476;2022-10-31T07:23:54;101660.50;;;12.81;88.47
75543;BME280;64129;53.508;10.476;2022-10-31T07:26:38;101659.41;;;12.93;87.98
75543;BME280;64129;53.508;10.476;2022-10-31T07:29:03;101663.78;;;12.97;87.82
75543;BME280;64129;53.508;10.476;2022-10-31T07:31:29;101660.13;;;13.03;86.37
75543;BME280;64129;53.508;10.476;2022-10-31T07:33:59;101660.91;;;13.08;87.57
75543;BME280;64129;53.508;10.476;2022-10-31T07:36:27;101666.19;;;13.11;86.23
75543;BME280;64129;53.508;10.476;2022-10-31T07:38:56;101671.53;;;13.09;86.09
75543;BME280;64129;53.508;10.476;2022-10-31T07:41:24;101668.88;;;13.09;87.40
75543;BME280;64129;53.508;10.476;2022-10-31T07:43:49;101665.19;;;13.18;87.10
75543;BME280;64129;53.508;10.476;2022-10-31T07:46:15;101670.50;;;13.21;87.09
75543;BME280;64129;53.508;10.476;2022-10-31T07:49:06;101677.44;;;13.28;86.29
75543;BME280;64129;53.508;10.476;2022-10-31T07:51:51;101677.44;;;13.28;86.89
75543;BME280;64129;53.508;10.476;2022-10-31T07:54:35;101683.56;;;13.33;86.94
75543;BME280;64129;53.508;10.476;2022-10-31T07:57:00;101676.53;;;13.29;86.52
75543;BME280;64129;53.508;10.476;2022-10-31T07:59:25;101673.16;;;13.21;87.55
75543;BME280;64129;53.508;10.476;2022-10-31T08:01:53;101681.88;;;13.29;87.26
75543;BME280;64129;53.508;10.476;2022-10-31T08:04:38;101690.66;;;13.34;87.69
75543;BME280;64129;53.508;10.476;2022-10-31T08:07:22;101699.69;;;13.29;87.35
75543;BME280;64129;53.508;10.476;2022-10-31T08:09:55;101699.84;;;13.20;87.49
75543;BME280;64129;53.508;10.476;2022-10-31T08:12:23;101700.75;;;13.17;87.64
75543;BME280;64129;53.508;10.476;2022-10-31T08:14:49;101704.13;;;13.28;86.79
75543;BME280;64129;53.508;10.476;2022-10-31T08:17:17;101700.63;;;13.26;87.21
75543;BME280;64129;53.508;10.476;2022-10-31T08:19:53;101701.41;;;13.31;87.27
75543;BME280;64129;53.508;10.476;2022-10-31T08:22:23;101690.47;;;13.43;85.47
75543;BME280;64129;53.508;10.476;2022-10-31T08:24:48;101694.72;;;14.34;85.85
75543;BME280;64129;53.508;10.476;2022-10-31T08:27:14;101691.28;;;15.34;81.24
75543;BME280;64129;53.508;10.476;2022-10-31T08:29:39;101692.06;;;14.34;82.81
75543;BME280;64129;53.508;10.476;2022-10-31T08:32:05;101690.56;;;13.82;84.77
75543;BME280;64129;53.508;10.476;2022-10-31T08:34:48;101701.38;;;13.76;85.42
75543;BME280;64129;53.508;10.476;2022-10-31T08:37:32;101698.00;;;13.68;85.48
75543;BME280;64129;53.508;10.476;2022-10-31T08:39:58;101697.94;;;13.71;85.21
75543;BME280;64129;53.508;10.476;2022-10-31T08:42:23;101694.47;;;13.66;85.21
75543;BME280;64129;53.508;10.476;2022-10-31T08:44:49;101690.88;;;14.47;85.21
75543;BME280;64129;53.508;10.476;2022-10-31T08:47:14;101703.00;;;14.22;81.49
75543;BME280;64129;53.508;10.476;2022-10-31T08:49:39;101698.19;;;14.00;83.91
75543;BME280;64129;53.508;10.476;2022-10-31T08:52:05;101692.00;;;13.98;84.47
75543;BME280;64129;53.508;10.476;2022-10-31T08:54:35;101687.78;;;13.87;84.03
75543;BME280;64129;53.508;10.476;2022-10-31T08:57:23;101693.19;;;13.84;84.11
75543;BME280;64129;53.508;10.476;2022-10-31T08:59:48;101702.34;;;13.72;84.74
75543;BME280;64129;53.508;10.476;2022-10-31T09:02:22;101694.97;;;13.83;84.43
75543;BME280;64129;53.508;10.476;2022-10-31T09:04:50;101692.38;;;13.80;84.82
75543;BME280;64129;53.508;10.476;2022-10-31T09:07:16;101700.19;;;13.91;84.68
75543;BME280;64129;53.508;10.476;2022-10-31T09:09:41;101697.47;;;13.92;84.73
75543;BME280;64129;53.508;10.476;2022-10-31T09:12:06;101686.47;;;14.06;84.61
75543;BME280;64129;53.508;10.476;2022-10-31T09:14:53;101678.13;;;13.81;84.75
75543;BME280;64129;53.508;10.476;2022-10-31T09:17:24;101686.50;;;14.04;84.32
75543;BME280;64129;53.508;10.476;2022-10-31T09:20:10;101690.16;;;14.00;82.99
75543;BME280;64129;53.508;10.476;2022-10-31T09:22:37;101693.69;;;14.02;84.19
75543;BME280;64129;53.508;10.476;2022-10-31T09:25:02;101690.94;;;14.05;82.57
75543;BME280;64129;53.508;10.476;2022-10-31T09:27:28;101693.31;;;14.18;82.17
75543;BME280;64129;53.508;10.476;2022-10-31T09:29:55;101684.59;;;14.10;83.48
75543;BME280;64129;53.508;10.476;2022-10-31T09:32:20;101690.09;;;14.03;82.82
75543;BME280;64129;53.508;10.476;2022-10-31T09:34:46;101683.47;;;13.81;84.37
75543;BME280;64129;53.508;10.476;2022-10-31T09:37:15;101686.78;;;13.92;83.90
75543;BME280;64129;53.508;10.476;2022-10-31T09:39:40;101674.66;;;14.16;83.17
75543;BME280;64129;53.508;10.476;2022-10-31T09:42:35;101679.75;;;13.88;83.84
75543;BME280;64129;53.508;10.476;2022-10-31T09:50:43;101684.69;;;14.07;83.72
75543;BME280;64129;53.508;10.476;2022-10-31T09:56:21;101684.47;;;14.16;82.84
75543;BME280;64129;53.508;10.476;2022-10-31T09:58:53;101676.28;;;14.23;81.13
75543;BME280;64129;53.508;10.476;2022-10-31T10:01:54;101692.16;;;14.29;81.53
75543;BME280;64129;53.508;10.476;2022-10-31T10:24:29;101696.09;;;14.52;80.66
75543;BME280;64129;53.508;10.476;2022-10-31T10:29:53;101706.22;;;14.75;81.01
75543;BME280;64129;53.508;10.476;2022-10-31T10:32:27;101690.09;;;14.78;80.27
75543;BME280;64129;53.508;10.476;2022-10-31T10:35:08;101691.78;;;14.82;80.21
75543;BME280;64129;53.508;10.476;2022-10-31T10:37:40;101695.38;;;14.81;79.99
75543;BME280;64129;53.508;10.476;2022-10-31T10:40:16;101697.59;;;14.63;79.93
75543;BME280;64129;53.508;10.476;2022-10-31T10:45:46;101696.13;;;14.50;79.82
75543;BME280;64129;53.508;10.476;2022-10-31T10:48:42;101694.94;;;14.25;80.65
75543;BME280;64129;53.508;10.476;2022-10-31T10:51:20;101695.41;;;14.44;80.10
75543;BME280;64129;53.508;10.476;2022-10-31T10:56:51;101683.47;;;14.20;80.91
75543;BME280;64129;53.508;10.476;2022-10-31T10:59:21;101677.16;;;14.24;80.92
75543;BME280;64129;53.508;10.476;2022-10-31T11:01:50;101679.00;;;14.59;79.79
75543;BME280;64129;53.508;10.476;2022-10-31T11:07:07;101671.44;;;14.39;79.05
75543;BME280;64129;53.508;10.476;2022-10-31T11:09:34;101671.00;;;14.59;78.94
75543;BME280;64129;53.508;10.476;2022-10-31T11:12:09;101675.94;;;14.37;79.64
75543;BME280;64129;53.508;10.476;2022-10-31T11:15:23;101673.16;;;14.43;79.11
75543;BME280;64129;53.508;10.476;2022-10-31T11:17:51;101665.78;;;15.19;78.50
75543;BME280;64129;53.508;10.476;2022-10-31T11:20:27;101670.00;;;15.60;77.31
75543;BME280;64129;53.508;10.476;2022-10-31T11:23:22;101669.44;;;16.08;75.03
75543;BME280;64129;53.508;10.476;2022-10-31T11:28:20;101671.91;;;15.86;75.35
75543;BME280;64129;53.508;10.476;2022-10-31T11:30:47;101666.22;;;16.25;74.08
75543;BME280;64129;53.508;10.476;2022-10-31T11:35:42;101660.44;;;15.81;73.36
75543;BME280;64129;53.508;10.476;2022-10-31T11:38:17;101658.03;;;16.02;73.78
75543;BME280;64129;53.508;10.476;2022-10-31T11:40:54;101651.75;;;16.03;72.30
75543;BME280;64129;53.508;10.476;2022-10-31T11:43:21;101654.78;;;15.63;74.46
75543;BME280;64129;53.508;10.476;2022-10-31T11:45:47;101648.53;;;16.74;71.17
75543;BME280;64129;53.508;10.476;2022-10-31T11:48:19;101640.66;;;16.41;71.74
75543;BME280;64129;53.508;10.476;2022-10-31T11:50:55;101648.97;;;16.34;71.76
75543;BME280;64129;53.508;10.476;2022-10-31T11:53:30;101650.16;;;16.51;70.76
75543;BME280;64129;53.508;10.476;2022-10-31T11:56:13;101657.75;;;16.11;72.35
75543;BME280;64129;53.508;10.476;2022-10-31T11:58:40;101649.25;;;16.25;71.83
75543;BME280;64129;53.508;10.476;2022-10-31T12:01:08;101646.63;;;16.23;71.77
75543;BME280;64129;53.508;10.476;2022-10-31T12:04:12;101641.59;;;16.40;70.56
75543;BME280;64129;53.508;10.476;2022-10-31T12:06:39;101636.94;;;16.19;70.77
75543;BME280;64129;53.508;10.476;2022-10-31T12:09:23;101637.25;;;16.89;69.46
75543;BME280;64129;53.508;10.476;2022-10-31T12:17:15;101634.19;;;15.93;72.44
75543;BME280;64129;53.508;10.476;2022-10-31T12:22:24;101632.56;;;15.59;73.68
75543;BME280;64129;53.508;10.476;2022-10-31T12:35:55;101629.72;;;15.65;74.23
75543;BME280;64129;53.508;10.476;2022-10-31T12:38:47;101623.44;;;15.66;74.29
75543;BME280;64129;53.508;10.476;2022-10-31T12:41:30;101619.03;;;15.33;73.94
75543;BME280;64129;53.508;10.476;2022-10-31T12:44:06;101616.97;;;15.42;74.16
75543;BME280;64129;53.508;10.476;2022-10-31T12:54:43;101611.56;;;15.44;74.77
75543;BME280;64129;53.508;10.476;2022-10-31T12:57:26;101614.75;;;15.25;75.18
75543;BME280;64129;53.508;10.476;2022-10-31T12:59:59;101610.00;;;15.37;74.06
75543;BME280;64129;53.508;10.476;2022-10-31T13:05:29;101610.69;;;15.12;74.04
75543;BME280;64129;53.508;10.476;2022-10-31T13:08:59;101621.31;;;15.15;74.50
75543;BME280;64129;53.508;10.476;2022-10-31T13:11:14;101606.72;;;14.96;75.14
75543;BME280;64129;53.508;10.476;2022-10-31T13:16:47;101602.84;;;14.74;74.85
75543;BME280;64129;53.508;10.476;2022-10-31T13:19:19;101603.25;;;14.92;74.39
75543;BME280;64129;53.508;10.476;2022-10-31T13:21:55;101603.41;;;15.17;74.43
75543;BME280;64129;53.508;10.476;2022-10-31T13:24:34;101591.31;;;15.35;73.49
75543;BME280;64129;53.508;10.476;2022-10-31T13:27:09;101594.81;;;15.06;73.98
75543;BME280;64129;53.508;10.476;2022-10-31T13:29:41;101589.38;;;15.09;73.67
75543;BME280;64129;53.508;10.476;2022-10-31T13:32:08;101592.19;;;15.05;74.15
75543;BME280;64129;53.508;10.476;2022-10-31T13:34:42;101589.88;;;14.91;74.87
75543;BME280;64129;53.508;10.476;2022-10-31T13:42:59;101585.69;;;14.82;75.77
75543;BME280;64129;53.508;10.476;2022-10-31T13:45:27;101585.50;;;14.88;74.48
75543;BME280;64129;53.508;10.476;2022-10-31T13:48:32;101584.63;;;14.88;74.65
75543;BME280;64129;53.508;10.476;2022-10-31T13:51:04;101577.25;;;14.97;74.42
75543;BME280;64129;53.508;10.476;2022-10-31T13:56:24;101567.91;;;14.80;75.13
75543;BME280;64129;53.508;10.476;2022-10-31T14:01:35;101559.97;;;14.77;74.89
75543;BME280;64129;53.508;10.476;2022-10-31T14:04:04;101561.66;;;14.81;75.53
75543;BME280;64129;53.508;10.476;2022-10-31T14:06:46;101557.53;;;14.69;75.73
75543;BME280;64129;53.508;10.476;2022-10-31T14:09:21;101558.31;;;14.39;76.65
75543;BME280;64129;53.508;10.476;2022-10-31T14:11:48;101554.59;;;14.78;75.60
75543;BME280;64129;53.508;10.476;2022-10-31T14:14:15;101547.78;;;14.66;76.06
75543;BME280;64129;53.508;10.476;2022-10-31T14:16:43;101547.78;;;14.66;76.03
75543;BME280;64129;53.508;10.476;2022-10-31T14:19:17;101539.16;;;14.55;76.73
75543;BME280;64129;53.508;10.476;2022-10-31T14:21:45;101531.94;;;14.60;76.41
75543;BME280;64129;53.508;10.476;2022-10-31T14:24:16;101539.16;;;14.55;76.14
75543;BME280;64129;53.508;10.476;2022-10-31T14:26:57;101539.44;;;14.46;76.65
75543;BME280;64129;53.508;10.476;2022-10-31T14:29:31;101535.00;;;14.45;76.81
75543;BME280;64129;53.508;10.476;2022-10-31T14:32:19;101527.91;;;14.44;76.84
75543;BME280;64129;53.508;10.476;2022-10-31T14:34:57;101526.56;;;14.26;77.42
75543;BME280;64129;53.508;10.476;2022-10-31T14:40:33;101520.44;;;14.23;78.09
75543;BME280;64129;53.508;10.476;2022-10-31T14:43:20;101524.81;;;14.25;77.91
75543;BME280;64129;53.508;10.476;2022-10-31T14:46:06;101529.09;;;13.97;79.37
75543;BME280;64129;53.508;10.476;2022-10-31T14:51:36;101508.09;;;14.17;78.80
75543;BME280;64129;53.508;10.476;2022-10-31T14:54:06;101505.25;;;14.25;79.08
75543;BME280;64129;53.508;10.476;2022-10-31T14:56:35;101498.97;;;14.26;78.77
75543;BME280;64129;53.508;10.476;2022-10-31T14:59:07;101502.50;;;13.57;81.01
75543;BME280;64129;53.508;10.476;2022-10-31T15:01:35;101506.47;;;13.76;80.79
75543;BME280;64129;53.508;10.476;2022-10-31T15:04:25;101497.09;;;13.60;81.60
75543;BME280;64129;53.508;10.476;2022-10-31T15:07:14;101484.31;;;13.72;80.85
75543;BME280;64129;53.508;10.476;2022-10-31T15:09:41;101483.31;;;13.77;81.06